Time;durP1;ratioP1;P1;durP2;ratioP2;P2;SDS_P1;SDS_P2;PMS_P1;PMS_P2;Temp;Humidity;BMP_temperature;BMP_pressure;BME280_temperature;BME280_humidity;BME280_pressure;Samples;Min_cycle;Max_cycle;Signal;HPM_P1;HPM_P2
2022/03/01 09:10:48;;;;;;;8.13;6.20;;;;;;;;;;5042048;28;20210;-89
2022/03/01 09:13:15;;;;;;;10.93;5.93;;;;;;;;;;5054048;28;20313;-89
2022/03/01 09:15:43;;;;;;;8.07;5.70;;;;;;;;;;5053000;28;20230;-90
2022/03/01 09:18:10;;;;;;;8.10;5.40;;;;;;;;;;5035916;28;20223;-90
2022/03/01 09:20:37;;;;;;;12.90;6.27;;;;;;;;;;5035507;28;20915;-89
2022/03/01 09:23:04;;;;;;;8.03;5.77;;;;;;;;;;5053020;28;20249;-89
2022/03/01 09:25:32;;;;;;;9.10;5.50;;;;;;;;;;5033743;28;20793;-89
2022/03/01 09:28:01;;;;;;;12.73;5.53;;;;;;;;;;5039512;28;20218;-89
2022/03/01 09:30:29;;;;;;;8.67;5.63;;;;;;;;;;5034923;28;20211;-89
2022/03/01 09:32:56;;;;;;;9.10;5.80;;;;;;;;;;5033371;28;20225;-89
2022/03/01 09:35:24;;;;;;;12.10;6.47;;;;;;;;;;5032959;28;20724;-90
2022/03/01 09:37:51;;;;;;;9.97;5.40;;;;;;;;;;5043546;28;20226;-90
2022/03/01 09:40:18;;;;;;;7.57;4.87;;;;;;;;;;5053141;28;20233;-89
2022/03/01 09:42:46;;;;;;;9.47;5.33;;;;;;;;;;5045921;28;20218;-88
2022/03/01 09:45:15;;;;;;;12.77;6.43;;;;;;;;;;5053071;28;20202;-88
2022/03/01 09:47:42;;;;;;;7.77;4.97;;;;;;;;;;5044327;28;20265;-89
2022/03/01 09:50:40;;;;;;;9.30;5.53;;;;;;;;;;5032069;28;20260;-88
2022/03/01 09:53:08;;;;;;;9.67;6.00;;;;;;;;;;5046120;28;20202;-89
2022/03/01 09:55:35;;;;;;;9.03;6.13;;;;;;;;;;5043883;28;20252;-88
2022/03/01 09:58:02;;;;;;;8.97;6.23;;;;;;;;;;5043631;28;20245;-88
2022/03/01 10:00:31;;;;;;;7.70;4.33;;;;;;;;;;5034992;28;20194;-88
2022/03/01 10:02:58;;;;;;;8.63;6.00;;;;;;;;;;5040901;28;20269;-88
2022/03/01 10:05:34;;;;;;;6.50;4.87;;;;;;;;;;5033950;28;20230;-89
2022/03/01 10:08:08;;;;;;;8.27;5.20;;;;;;;;;;5032864;28;20230;-88
2022/03/01 10:10:38;;;;;;;7.93;5.27;;;;;;;;;;5046273;28;20640;-88
2022/03/01 10:13:05;;;;;;;9.90;5.47;;;;;;;;;;5040756;28;20252;-88
2022/03/01 10:15:34;;;;;;;7.27;5.17;;;;;;;;;;5033336;28;20276;-88
2022/03/01 10:18:09;;;;;;;9.00;5.03;;;;;;;;;;5034795;28;20218;-88
2022/03/01 10:20:37;;;;;;;6.83;5.23;;;;;;;;;;5042055;28;20201;-88
2022/03/01 10:23:04;;;;;;;7.23;5.37;;;;;;;;;;5044567;28;20225;-89
2022/03/01 10:25:31;;;;;;;7.93;5.60;;;;;;;;;;5047566;28;20206;-89
2022/03/01 10:27:59;;;;;;;8.77;5.27;;;;;;;;;;5037143;28;20230;-88
2022/03/01 10:30:27;;;;;;;7.93;5.67;;;;;;;;;;5048654;28;20604;-88
2022/03/01 10:33:05;;;;;;;8.87;5.77;;;;;;;;;;5051873;28;20229;-88
2022/03/01 10:35:32;;;;;;;6.63;5.00;;;;;;;;;;5045439;28;20206;-88
2022/03/01 10:38:01;;;;;;;6.00;4.77;;;;;;;;;;5042641;28;20218;-88
2022/03/01 10:40:29;;;;;;;8.60;5.00;;;;;;;;;;5044207;28;20218;-88
2022/03/01 10:43:00;;;;;;;7.40;4.23;;;;;;;;;;5032397;28;20219;-88
2022/03/01 10:45:37;;;;;;;9.00;5.60;;;;;;;;;;5045903;28;20230;-88
2022/03/01 10:48:06;;;;;;;9.90;6.13;;;;;;;;;;5048190;28;20581;-89
2022/03/01 10:50:33;;;;;;;7.20;4.83;;;;;;;;;;5048601;28;20202;-88
2022/03/01 10:53:00;;;;;;;3.37;2.77;;;;;;;;;;5045892;28;20230;-87
2022/03/01 10:55:28;;;;;;;6.13;5.37;;;;;;;;;;5047296;28;20256;-89
2022/03/01 10:57:59;;;;;;;7.90;5.13;;;;;;;;;;5041008;28;20703;-88
2022/03/01 11:00:27;;;;;;;8.23;5.33;;;;;;;;;;5051942;28;20206;-88
2022/03/01 11:02:54;;;;;;;8.77;4.40;;;;;;;;;;5036085;28;20231;-88
2022/03/01 11:05:35;;;;;;;5.70;3.77;;;;;;;;;;5046568;28;20241;-88
2022/03/01 11:08:03;;;;;;;7.97;4.70;;;;;;;;;;5052002;28;20270;-88
2022/03/01 11:10:31;;;;;;;8.47;5.23;;;;;;;;;;5041372;28;20267;-88
2022/03/01 11:13:00;;;;;;;8.57;5.23;;;;;;;;;;5041828;28;20519;-88
2022/03/01 11:15:33;;;;;;;6.87;4.43;;;;;;;;;;5052285;28;20204;-88
2022/03/01 11:18:05;;;;;;;7.17;4.37;;;;;;;;;;5045589;28;20272;-90
2022/03/01 11:20:36;;;;;;;6.37;4.53;;;;;;;;;;5048536;28;20206;-89
2022/03/01 11:23:05;;;;;;;6.67;4.93;;;;;;;;;;5039254;28;20313;-89
2022/03/01 11:25:37;;;;;;;5.47;4.50;;;;;;;;;;5031178;28;20221;-89
2022/03/01 11:28:08;;;;;;;6.30;4.30;;;;;;;;;;5039150;28;20234;-90
2022/03/01 11:30:37;;;;;;;6.57;3.93;;;;;;;;;;5046732;28;20301;-90
2022/03/01 11:33:04;;;;;;;5.13;3.73;;;;;;;;;;5051748;28;20259;-89
2022/03/01 11:35:32;;;;;;;9.20;5.07;;;;;;;;;;5048138;28;20205;-89
2022/03/01 11:38:02;;;;;;;9.90;4.57;;;;;;;;;;5043511;28;20218;-90
2022/03/01 11:40:32;;;;;;;7.13;4.50;;;;;;;;;;5051675;28;20662;-89
2022/03/01 11:43:07;;;;;;;8.73;5.43;;;;;;;;;;5047153;28;20260;-89
2022/03/01 11:45:35;;;;;;;6.67;4.17;;;;;;;;;;5051446;28;20240;-89
2022/03/01 11:48:06;;;;;;;5.50;3.80;;;;;;;;;;5032100;28;20240;-89
2022/03/01 11:50:34;;;;;;;7.40;3.57;;;;;;;;;;5031684;28;20238;-89
2022/03/01 11:53:05;;;;;;;7.23;4.90;;;;;;;;;;5033445;28;20227;-89
2022/03/01 11:55:41;;;;;;;7.37;5.03;;;;;;;;;;5045600;28;20293;-90
2022/03/01 11:58:09;;;;;;;6.03;4.37;;;;;;;;;;5049889;28;20678;-89
2022/03/01 12:00:39;;;;;;;5.80;3.67;;;;;;;;;;5047443;28;20206;-90
2022/03/01 12:03:08;;;;;;;4.77;3.70;;;;;;;;;;5044977;28;20288;-90
2022/03/01 12:05:37;;;;;;;3.83;2.80;;;;;;;;;;5049286;28;20578;-89
2022/03/01 12:08:07;;;;;;;3.33;2.50;;;;;;;;;;5055098;28;20226;-88
2022/03/01 12:10:34;;;;;;;3.30;2.40;;;;;;;;;;5049117;28;20222;-89
2022/03/01 12:13:05;;;;;;;6.10;4.60;;;;;;;;;;5047950;28;20290;-90
2022/03/01 12:15:33;;;;;;;6.13;4.60;;;;;;;;;;5034941;28;20986;-90
2022/03/01 12:18:11;;;;;;;8.00;4.87;;;;;;;;;;5031767;28;20226;-90
2022/03/01 12:20:40;;;;;;;7.20;4.23;;;;;;;;;;5041444;28;20607;-90
2022/03/01 12:23:09;;;;;;;6.27;4.40;;;;;;;;;;5046166;28;20234;-90
2022/03/01 12:25:37;;;;;;;5.27;3.90;;;;;;;;;;5047914;28;20275;-91
2022/03/01 12:28:05;;;;;;;3.97;2.70;;;;;;;;;;5045897;28;20222;-90
2022/03/01 12:30:35;;;;;;;6.27;4.37;;;;;;;;;;5045419;28;20235;-90
2022/03/01 12:33:02;;;;;;;9.47;4.10;;;;;;;;;;5053730;28;20216;-90
2022/03/01 12:35:30;;;;;;;7.07;3.73;;;;;;;;;;5057214;28;20206;-90
2022/03/01 12:38:07;;;;;;;6.43;4.27;;;;;;;;;;5050744;28;20253;-90
2022/03/01 12:40:37;;;;;;;7.00;5.10;;;;;;;;;;5036845;28;20268;-90
2022/03/01 12:43:05;;;;;;;5.90;3.60;;;;;;;;;;5037459;28;20215;-90
2022/03/01 12:45:33;;;;;;;6.80;4.63;;;;;;;;;;5036975;28;20202;-90
2022/03/01 12:48:02;;;;;;;6.40;4.90;;;;;;;;;;5042852;28;20221;-88
2022/03/01 12:50:30;;;;;;;8.43;4.47;;;;;;;;;;5045122;28;20212;-90
2022/03/01 12:52:58;;;;;;;6.83;4.67;;;;;;;;;;5036621;28;20211;-90
2022/03/01 12:55:25;;;;;;;6.07;4.40;;;;;;;;;;5041766;28;20210;-90
2022/03/01 12:57:54;;;;;;;9.00;5.90;;;;;;;;;;5037802;28;20226;-90
2022/03/01 13:00:23;;;;;;;7.43;4.77;;;;;;;;;;5036871;28;20748;-90
2022/03/01 13:02:57;;;;;;;6.63;4.77;;;;;;;;;;5036378;28;20221;-90
2022/03/01 13:05:28;;;;;;;6.30;4.87;;;;;;;;;;5036566;28;20241;-90
2022/03/01 13:07:55;;;;;;;8.00;4.87;;;;;;;;;;5044777;28;20226;-90
2022/03/01 13:10:32;;;;;;;8.03;5.07;;;;;;;;;;5036260;28;20222;-90
2022/03/01 13:13:10;;;;;;;9.87;5.30;;;;;;;;;;5036385;28;20202;-90
2022/03/01 13:15:39;;;;;;;7.33;5.63;;;;;;;;;;5052831;28;20209;-90
2022/03/01 13:18:07;;;;;;;7.40;5.17;;;;;;;;;;5049224;28;20621;-90
2022/03/01 13:20:35;;;;;;;5.47;4.40;;;;;;;;;;5056777;28;20218;-90
2022/03/01 13:23:03;;;;;;;6.07;4.47;;;;;;;;;;5052959;28;20260;-89
2022/03/01 13:25:32;;;;;;;8.83;5.17;;;;;;;;;;5045413;28;20325;-90
2022/03/01 13:27:59;;;;;;;5.27;4.23;;;;;;;;;;5056300;28;20248;-92
2022/03/01 13:30:28;;;;;;;6.20;4.97;;;;;;;;;;5055050;28;20296;-92
2022/03/01 13:33:09;;;;;;;7.43;5.13;;;;;;;;;;5040862;28;20218;-90
2022/03/01 13:35:37;;;;;;;6.77;4.93;;;;;;;;;;5047167;28;20647;-90
2022/03/01 13:38:05;;;;;;;9.13;4.90;;;;;;;;;;5035548;28;20240;-89
2022/03/01 13:40:33;;;;;;;7.70;4.57;;;;;;;;;;5048930;28;20256;-90
2022/03/01 13:43:10;;;;;;;7.23;4.93;;;;;;;;;;5047189;28;20205;-90
2022/03/01 13:45:40;;;;;;;6.73;4.50;;;;;;;;;;5054754;28;20225;-89
2022/03/01 13:48:14;;;;;;;6.30;4.50;;;;;;;;;;5051546;28;20755;-89
2022/03/01 13:50:42;;;;;;;7.60;5.27;;;;;;;;;;5043173;28;20283;-89
2022/03/01 13:53:10;;;;;;;7.30;4.70;;;;;;;;;;5042696;28;20275;-89
2022/03/01 13:55:38;;;;;;;7.93;4.70;;;;;;;;;;5051067;28;20202;-90
2022/03/01 13:58:08;;;;;;;8.03;5.70;;;;;;;;;;5050976;28;20288;-89
2022/03/01 14:00:37;;;;;;;6.47;5.03;;;;;;;;;;5046295;28;20210;-90
2022/03/01 14:03:09;;;;;;;7.20;5.00;;;;;;;;;;5053169;28;20210;-90
2022/03/01 14:05:38;;;;;;;9.13;5.33;;;;;;;;;;5050926;28;20255;-90
2022/03/01 14:08:06;;;;;;;8.63;5.17;;;;;;;;;;5051825;28;20301;-89
2022/03/01 14:10:34;;;;;;;7.00;5.00;;;;;;;;;;5035029;28;20218;-90
2022/03/01 14:13:03;;;;;;;6.07;5.17;;;;;;;;;;5048330;28;20699;-90
2022/03/01 14:15:34;;;;;;;8.03;5.50;;;;;;;;;;5064709;28;20303;-89
2022/03/01 14:18:01;;;;;;;7.63;5.37;;;;;;;;;;5046479;28;20229;-90
2022/03/01 14:20:30;;;;;;;7.17;4.80;;;;;;;;;;5048578;28;20206;-91
2022/03/01 14:23:06;;;;;;;8.23;5.10;;;;;;;;;;5051758;28;20206;-89
2022/03/01 14:25:34;;;;;;;5.57;4.50;;;;;;;;;;5059859;28;20220;-91
2022/03/01 14:28:01;;;;;;;8.57;5.53;;;;;;;;;;5052810;28;20226;-90
2022/03/01 14:30:28;;;;;;;8.83;4.40;;;;;;;;;;5041328;28;20229;-90
2022/03/01 14:32:56;;;;;;;9.20;5.90;;;;;;;;;;5043595;28;20553;-90
2022/03/01 14:35:24;;;;;;;6.70;4.73;;;;;;;;;;5052285;28;20216;-89
2022/03/01 14:37:53;;;;;;;10.87;5.57;;;;;;;;;;5043480;28;20287;-90
2022/03/01 14:40:20;;;;;;;7.53;4.50;;;;;;;;;;5037215;28;20205;-90
2022/03/01 14:42:47;;;;;;;6.80;4.70;;;;;;;;;;5061364;28;20205;-90
2022/03/01 14:45:15;;;;;;;8.20;4.97;;;;;;;;;;5071675;28;20628;-90
2022/03/01 14:47:42;;;;;;;7.27;4.90;;;;;;;;;;5037862;28;20230;-90
2022/03/01 14:50:10;;;;;;;7.30;4.73;;;;;;;;;;5039919;28;20265;-89
2022/03/01 14:52:37;;;;;;;6.43;4.50;;;;;;;;;;5050589;28;20308;-90
2022/03/01 14:55:06;;;;;;;10.97;6.57;;;;;;;;;;5046316;28;20199;-90
2022/03/01 14:57:34;;;;;;;8.47;5.57;;;;;;;;;;5032080;28;20238;-91
2022/03/01 15:00:01;;;;;;;6.20;4.60;;;;;;;;;;5033517;28;20242;-89
2022/03/01 15:02:28;;;;;;;5.33;4.13;;;;;;;;;;5033449;28;20226;-90
2022/03/01 15:04:56;;;;;;;6.97;4.57;;;;;;;;;;5044842;28;20388;-89
2022/03/01 15:07:23;;;;;;;8.70;4.67;;;;;;;;;;5047189;28;20296;-90
2022/03/01 15:09:51;;;;;;;6.93;4.70;;;;;;;;;;5053147;28;20267;-90
2022/03/01 15:12:19;;;;;;;7.47;5.67;;;;;;;;;;5052652;28;20242;-90
2022/03/01 15:14:47;;;;;;;7.57;4.57;;;;;;;;;;5045038;28;20206;-90
2022/03/01 15:17:15;;;;;;;8.83;4.43;;;;;;;;;;5033269;28;20233;-91
2022/03/01 15:19:43;;;;;;;5.73;4.10;;;;;;;;;;5039714;28;20205;-90
2022/03/01 15:22:10;;;;;;;7.53;4.87;;;;;;;;;;5038530;28;20232;-90
2022/03/01 15:24:38;;;;;;;6.07;4.70;;;;;;;;;;5047518;28;20237;-90
2022/03/01 15:27:05;;;;;;;5.33;4.70;;;;;;;;;;5035402;28;20206;-90
2022/03/01 15:29:34;;;;;;;7.93;5.10;;;;;;;;;;5040606;28;20267;-90
2022/03/01 15:32:01;;;;;;;8.83;4.90;;;;;;;;;;5052461;28;20619;-90
2022/03/01 15:34:29;;;;;;;9.10;5.00;;;;;;;;;;5049181;28;20202;-89
2022/03/01 15:36:56;;;;;;;8.20;4.70;;;;;;;;;;5042941;28;20217;-90
2022/03/01 15:39:23;;;;;;;6.70;4.80;;;;;;;;;;5036470;28;20641;-91
2022/03/01 15:41:51;;;;;;;9.10;4.67;;;;;;;;;;5031654;28;20303;-90
2022/03/01 15:44:18;;;;;;;6.50;4.80;;;;;;;;;;5036757;28;20666;-92
2022/03/01 15:46:49;;;;;;;6.63;4.70;;;;;;;;;;5043219;28;20280;-90
2022/03/01 15:49:16;;;;;;;6.47;4.57;;;;;;;;;;5049395;28;20352;-91
2022/03/01 15:51:43;;;;;;;6.47;4.40;;;;;;;;;;5040846;28;20230;-89
2022/03/01 15:54:10;;;;;;;7.53;5.00;;;;;;;;;;5046038;28;20645;-92
2022/03/01 15:56:38;;;;;;;6.27;4.00;;;;;;;;;;5040487;28;20232;-90
2022/03/01 15:59:05;;;;;;;6.77;4.70;;;;;;;;;;5044351;28;20695;-91
2022/03/01 16:01:32;;;;;;;8.63;4.60;;;;;;;;;;5043502;28;20211;-91
2022/03/01 16:04:01;;;;;;;6.47;4.50;;;;;;;;;;5040178;28;20238;-90
2022/03/01 16:06:28;;;;;;;5.63;4.30;;;;;;;;;;5038204;28;20313;-91
2022/03/01 16:08:56;;;;;;;9.17;4.93;;;;;;;;;;5043769;28;20272;-89
2022/03/01 16:11:23;;;;;;;7.60;4.80;;;;;;;;;;5050505;28;20244;-90
2022/03/01 16:13:50;;;;;;;7.27;4.97;;;;;;;;;;5052123;28;20618;-89
2022/03/01 16:16:18;;;;;;;7.37;5.10;;;;;;;;;;5045732;28;20413;-90
2022/03/01 16:18:45;;;;;;;8.77;5.17;;;;;;;;;;5043030;28;20227;-91
2022/03/01 16:21:14;;;;;;;7.23;4.90;;;;;;;;;;5055871;28;20229;-90
2022/03/01 16:23:42;;;;;;;6.87;4.90;;;;;;;;;;5046602;28;20214;-90
2022/03/01 16:26:10;;;;;;;9.80;5.77;;;;;;;;;;5040838;28;20234;-89
2022/03/01 16:28:37;;;;;;;8.87;4.47;;;;;;;;;;5038234;28;20226;-89
2022/03/01 16:31:06;;;;;;;7.97;5.13;;;;;;;;;;5036598;28;20717;-90
2022/03/01 16:33:33;;;;;;;6.57;4.50;;;;;;;;;;5042208;28;20218;-90
2022/03/01 16:36:02;;;;;;;7.00;4.80;;;;;;;;;;5055126;28;20210;-92
2022/03/01 16:38:31;;;;;;;10.73;5.47;;;;;;;;;;5050383;28;20717;-89
2022/03/01 16:40:58;;;;;;;8.67;5.03;;;;;;;;;;5050068;28;20260;-90
2022/03/01 16:43:25;;;;;;;6.27;4.83;;;;;;;;;;5045917;28;20240;-90
2022/03/01 16:45:52;;;;;;;8.30;5.20;;;;;;;;;;5054395;28;20222;-90
2022/03/01 16:48:20;;;;;;;8.73;4.80;;;;;;;;;;5052721;28;20225;-90
2022/03/01 16:51:00;;;;;;;8.27;5.10;;;;;;;;;;5045778;28;20827;-90
2022/03/01 16:53:27;;;;;;;7.43;5.17;;;;;;;;;;5043117;28;20212;-90
2022/03/01 16:55:56;;;;;;;6.40;5.03;;;;;;;;;;5054386;28;20202;-89
2022/03/01 16:58:23;;;;;;;10.93;6.23;;;;;;;;;;5043066;28;20317;-89
2022/03/01 17:00:50;;;;;;;6.70;5.20;;;;;;;;;;5050077;28;20622;-88
2022/03/01 17:03:18;;;;;;;7.70;5.07;;;;;;;;;;5048336;28;20198;-91
2022/03/01 17:05:45;;;;;;;9.53;5.80;;;;;;;;;;5054273;28;20275;-90
2022/03/01 17:08:12;;;;;;;6.50;4.80;;;;;;;;;;5048701;28;20283;-90
2022/03/01 17:10:40;;;;;;;8.93;5.47;;;;;;;;;;5046881;28;20218;-90
2022/03/01 17:13:09;;;;;;;11.27;6.27;;;;;;;;;;5041022;28;20205;-90
2022/03/01 17:15:36;;;;;;;13.03;5.20;;;;;;;;;;5054035;28;20202;-88
2022/03/01 17:18:04;;;;;;;6.63;4.70;;;;;;;;;;5046543;28;20222;-88
2022/03/01 17:20:32;;;;;;;8.27;5.23;;;;;;;;;;5043486;28;20210;-88
2022/03/01 17:23:01;;;;;;;7.90;5.27;;;;;;;;;;5072268;28;20209;-88
2022/03/01 17:25:29;;;;;;;7.23;5.77;;;;;;;;;;5050149;28;20245;-88
2022/03/01 17:27:56;;;;;;;8.13;5.37;;;;;;;;;;5048943;28;20316;-88
2022/03/01 17:30:25;;;;;;;11.13;7.10;;;;;;;;;;5040993;28;20202;-89
2022/03/01 17:32:52;;;;;;;11.03;7.63;;;;;;;;;;5054818;28;20658;-88
2022/03/01 17:35:19;;;;;;;10.07;6.63;;;;;;;;;;5043312;28;20717;-89
2022/03/01 17:37:48;;;;;;;7.10;5.10;;;;;;;;;;5045096;28;20229;-88
2022/03/01 17:40:16;;;;;;;7.37;4.80;;;;;;;;;;5056125;28;20202;-88
2022/03/01 17:42:43;;;;;;;8.43;5.37;;;;;;;;;;5048908;28;20344;-88
2022/03/01 17:45:11;;;;;;;8.23;4.83;;;;;;;;;;5051644;28;20317;-88
2022/03/01 17:47:41;;;;;;;8.77;5.63;;;;;;;;;;5037972;28;20249;-91
2022/03/01 17:50:09;;;;;;;8.83;5.20;;;;;;;;;;5043147;28;20723;-88
2022/03/01 17:52:39;;;;;;;8.97;5.07;;;;;;;;;;5041394;28;20206;-89
2022/03/01 17:55:07;;;;;;;7.93;5.43;;;;;;;;;;5062049;28;20209;-89
2022/03/01 17:57:35;;;;;;;8.27;4.73;;;;;;;;;;5039382;28;20226;-89
2022/03/01 18:00:02;;;;;;;7.87;4.47;;;;;;;;;;5041365;28;20256;-88
2022/03/01 18:02:30;;;;;;;8.30;5.53;;;;;;;;;;5049870;28;20259;-89
2022/03/01 18:04:58;;;;;;;10.40;5.43;;;;;;;;;;5052813;28;20244;-88
2022/03/01 18:07:26;;;;;;;9.93;6.03;;;;;;;;;;5041277;28;20252;-88
2022/03/01 18:09:53;;;;;;;14.87;5.90;;;;;;;;;;5051684;28;20246;-89
2022/03/01 18:12:21;;;;;;;8.20;5.23;;;;;;;;;;5047265;28;20252;-90
2022/03/01 18:14:48;;;;;;;19.17;11.33;;;;;;;;;;5040254;28;20249;-89
2022/03/01 18:17:15;;;;;;;10.83;6.93;;;;;;;;;;5054498;28;20242;-89
2022/03/01 18:19:43;;;;;;;9.10;6.47;;;;;;;;;;5056251;28;20206;-89
2022/03/01 18:22:11;;;;;;;9.53;5.93;;;;;;;;;;5063490;28;20205;-88
2022/03/01 18:24:39;;;;;;;6.73;5.03;;;;;;;;;;5056760;28;20217;-88
2022/03/01 18:27:07;;;;;;;8.63;5.60;;;;;;;;;;5062095;28;20247;-89
2022/03/01 18:29:35;;;;;;;10.43;6.27;;;;;;;;;;5047418;28;20206;-88
2022/03/01 18:32:02;;;;;;;13.40;5.67;;;;;;;;;;5051772;28;20209;-89
2022/03/01 18:34:29;;;;;;;7.60;5.53;;;;;;;;;;5045826;28;20660;-89
2022/03/01 18:36:59;;;;;;;9.90;4.77;;;;;;;;;;5051580;28;20684;-89
2022/03/01 18:39:27;;;;;;;10.87;5.30;;;;;;;;;;5055056;28;20213;-89
2022/03/01 18:41:55;;;;;;;9.23;6.30;;;;;;;;;;5053616;28;20646;-89
2022/03/01 18:44:23;;;;;;;10.37;5.87;;;;;;;;;;5054248;28;20236;-89
2022/03/01 18:46:50;;;;;;;11.67;5.90;;;;;;;;;;5047913;28;20230;-89
2022/03/01 18:49:17;;;;;;;9.87;6.23;;;;;;;;;;5055312;28;20237;-89
2022/03/01 18:51:45;;;;;;;10.97;6.73;;;;;;;;;;5062740;28;20209;-89
2022/03/01 18:54:12;;;;;;;10.03;5.73;;;;;;;;;;5048114;28;20203;-89
2022/03/01 18:56:41;;;;;;;9.10;6.87;;;;;;;;;;5046845;28;20260;-89
2022/03/01 18:59:08;;;;;;;10.23;6.90;;;;;;;;;;5053836;28;20915;-89
2022/03/01 19:01:36;;;;;;;12.60;7.17;;;;;;;;;;5047315;28;20212;-90
2022/03/01 19:04:04;;;;;;;11.30;6.53;;;;;;;;;;5047306;28;20210;-89
2022/03/01 19:06:31;;;;;;;9.30;6.03;;;;;;;;;;5035873;28;20617;-90
2022/03/01 19:09:00;;;;;;;7.47;5.43;;;;;;;;;;5046518;28;20229;-89
2022/03/01 19:11:27;;;;;;;8.73;6.00;;;;;;;;;;5045216;28;20203;-90
2022/03/01 19:13:56;;;;;;;10.03;5.67;;;;;;;;;;5050075;28;20264;-89
2022/03/01 19:16:23;;;;;;;8.10;5.37;;;;;;;;;;5054439;28;20552;-89
2022/03/01 19:18:51;;;;;;;8.53;5.23;;;;;;;;;;5047292;28;20230;-88
2022/03/01 19:21:18;;;;;;;10.33;6.60;;;;;;;;;;5059892;28;20193;-91
2022/03/01 19:23:46;;;;;;;11.53;6.17;;;;;;;;;;5055089;28;20228;-90
2022/03/01 19:26:14;;;;;;;13.73;7.43;;;;;;;;;;5071054;28;20229;-91
2022/03/01 19:28:42;;;;;;;10.23;7.00;;;;;;;;;;5041501;28;20228;-91
2022/03/01 19:31:10;;;;;;;11.77;6.70;;;;;;;;;;5051100;28;20263;-91
2022/03/01 19:33:38;;;;;;;11.67;7.07;;;;;;;;;;5040660;28;20260;-91
2022/03/01 19:36:15;;;;;;;10.23;6.87;;;;;;;;;;5041328;28;20198;-92
2022/03/01 19:38:42;;;;;;;8.57;5.70;;;;;;;;;;5051300;28;20665;-89
2022/03/01 19:41:19;;;;;;;11.60;7.27;;;;;;;;;;5049520;28;20202;-89
2022/03/01 19:43:46;;;;;;;13.33;7.23;;;;;;;;;;5043303;28;20210;-90
2022/03/01 19:46:15;;;;;;;9.73;6.03;;;;;;;;;;5058470;28;20217;-89
2022/03/01 19:48:42;;;;;;;10.83;6.90;;;;;;;;;;5058174;28;20230;-90
2022/03/01 19:51:10;;;;;;;9.87;6.87;;;;;;;;;;5055797;28;20255;-89
2022/03/01 19:53:38;;;;;;;9.73;7.40;;;;;;;;;;5061753;28;20217;-89
2022/03/01 19:56:05;;;;;;;14.37;7.13;;;;;;;;;;5052874;28;20685;-89
2022/03/01 19:58:33;;;;;;;17.00;10.37;;;;;;;;;;5047422;28;20317;-89
2022/03/01 20:01:00;;;;;;;11.57;6.50;;;;;;;;;;5041898;28;20217;-89
2022/03/01 20:03:29;;;;;;;8.43;5.77;;;;;;;;;;5047842;28;20211;-89
2022/03/01 20:05:57;;;;;;;10.77;6.77;;;;;;;;;;5035561;28;20223;-90
2022/03/01 20:08:24;;;;;;;7.93;5.60;;;;;;;;;;5044927;28;20249;-90
2022/03/01 20:10:52;;;;;;;9.33;5.90;;;;;;;;;;5048998;28;20210;-90
2022/03/01 20:13:19;;;;;;;10.43;6.43;;;;;;;;;;5054936;28;20214;-90
2022/03/01 20:15:47;;;;;;;14.53;6.03;;;;;;;;;;5050543;28;20232;-90
2022/03/01 20:18:14;;;;;;;12.07;6.63;;;;;;;;;;5047403;28;20718;-89
2022/03/01 20:20:43;;;;;;;9.83;6.40;;;;;;;;;;5041809;28;20603;-91
2022/03/01 20:23:11;;;;;;;14.80;6.53;;;;;;;;;;5062220;28;20213;-91
2022/03/01 20:25:38;;;;;;;12.80;7.97;;;;;;;;;;5057770;28;20262;-91
2022/03/01 20:28:08;;;;;;;10.37;6.60;;;;;;;;;;5049386;28;20242;-91
2022/03/01 20:30:36;;;;;;;11.83;6.83;;;;;;;;;;5047129;28;20210;-91
2022/03/01 20:33:03;;;;;;;10.10;6.30;;;;;;;;;;5043525;28;20259;-91
2022/03/01 20:35:30;;;;;;;10.87;5.63;;;;;;;;;;5052358;28;20301;-92
2022/03/01 20:37:59;;;;;;;12.27;7.83;;;;;;;;;;5043423;28;20245;-89
2022/03/01 20:40:27;;;;;;;10.20;7.00;;;;;;;;;;5049995;28;20222;-89
2022/03/01 20:42:55;;;;;;;11.80;8.33;;;;;;;;;;5052202;28;20271;-89
2022/03/01 20:45:23;;;;;;;10.10;7.47;;;;;;;;;;5051871;28;20774;-89
2022/03/01 20:47:51;;;;;;;15.27;8.10;;;;;;;;;;5040421;28;20807;-89
2022/03/01 20:50:19;;;;;;;9.73;6.80;;;;;;;;;;5052478;28;20288;-90
2022/03/01 20:52:47;;;;;;;10.17;6.43;;;;;;;;;;5053043;28;20206;-90
2022/03/01 20:55:16;;;;;;;13.13;7.17;;;;;;;;;;5036883;28;20206;-90
2022/03/01 20:57:44;;;;;;;11.20;7.30;;;;;;;;;;5051376;28;20229;-92
2022/03/01 21:00:13;;;;;;;11.73;7.77;;;;;;;;;;5044726;28;20215;-89
2022/03/01 21:02:41;;;;;;;10.23;7.67;;;;;;;;;;5039736;28;20229;-89
2022/03/01 21:05:08;;;;;;;10.87;7.50;;;;;;;;;;5052456;28;20548;-90
2022/03/01 21:07:36;;;;;;;13.13;7.10;;;;;;;;;;5048607;28;20222;-90
2022/03/01 21:10:04;;;;;;;11.57;7.77;;;;;;;;;;5045551;28;20210;-89
2022/03/01 21:12:33;;;;;;;10.67;6.53;;;;;;;;;;5039313;28;20206;-91
2022/03/01 21:15:00;;;;;;;11.37;7.83;;;;;;;;;;5052386;28;20210;-91
2022/03/01 21:17:27;;;;;;;10.40;6.40;;;;;;;;;;5045996;28;20230;-91
2022/03/01 21:19:55;;;;;;;7.77;5.93;;;;;;;;;;5052324;28;20678;-90
2022/03/01 21:22:39;;;;;;;11.70;7.47;;;;;;;;;;5058175;28;20254;-89
2022/03/01 21:25:07;;;;;;;9.80;6.63;;;;;;;;;;5030602;28;20672;-91
2022/03/01 21:27:36;;;;;;;15.27;6.60;;;;;;;;;;5047048;28;20682;-91
2022/03/01 21:30:04;;;;;;;15.10;7.17;;;;;;;;;;5046883;28;20202;-91
2022/03/01 21:32:32;;;;;;;10.23;6.50;;;;;;;;;;5044670;28;20220;-90
2022/03/01 21:34:59;;;;;;;11.57;7.20;;;;;;;;;;5039686;28;20229;-90
2022/03/01 21:37:27;;;;;;;10.17;7.13;;;;;;;;;;5042325;28;20283;-91
2022/03/01 21:39:55;;;;;;;12.27;7.03;;;;;;;;;;5050545;28;20579;-91
2022/03/01 21:42:22;;;;;;;17.73;7.80;;;;;;;;;;5047828;28;20210;-91
2022/03/01 21:44:51;;;;;;;8.60;6.43;;;;;;;;;;5046697;28;20213;-91
2022/03/01 21:47:19;;;;;;;7.57;5.50;;;;;;;;;;5045691;28;20306;-90
2022/03/01 21:49:46;;;;;;;9.50;7.10;;;;;;;;;;5054849;28;20252;-90
2022/03/01 21:52:13;;;;;;;13.87;7.37;;;;;;;;;;5049970;28;20259;-89
2022/03/01 21:54:41;;;;;;;16.57;8.00;;;;;;;;;;5051027;28;20300;-89
2022/03/01 21:57:08;;;;;;;10.67;7.20;;;;;;;;;;5046282;28;20289;-89
2022/03/01 21:59:36;;;;;;;11.33;7.17;;;;;;;;;;5048802;28;20214;-87
2022/03/01 22:02:04;;;;;;;13.67;7.43;;;;;;;;;;5039267;28;20229;-91
2022/03/01 22:04:32;;;;;;;8.63;6.20;;;;;;;;;;5041134;28;20301;-91
2022/03/01 22:06:59;;;;;;;8.87;6.83;;;;;;;;;;5033012;28;20751;-91
2022/03/01 22:09:26;;;;;;;11.87;6.80;;;;;;;;;;5032095;28;20884;-91
2022/03/01 22:11:54;;;;;;;12.27;6.20;;;;;;;;;;5041954;28;20236;-92
2022/03/01 22:14:21;;;;;;;7.70;6.00;;;;;;;;;;5046267;28;20199;-91
2022/03/01 22:16:48;;;;;;;13.63;7.77;;;;;;;;;;5033412;28;20253;-92
2022/03/01 22:19:17;;;;;;;8.47;6.27;;;;;;;;;;5040610;28;20283;-91
2022/03/01 22:21:44;;;;;;;11.13;7.03;;;;;;;;;;5041681;28;20670;-89
2022/03/01 22:24:11;;;;;;;9.40;6.37;;;;;;;;;;5051802;28;20205;-91
2022/03/01 22:26:39;;;;;;;18.33;6.30;;;;;;;;;;5049300;28;20229;-91
2022/03/01 22:29:06;;;;;;;9.87;6.10;;;;;;;;;;5040559;28;20280;-92
2022/03/01 22:31:33;;;;;;;12.57;7.20;;;;;;;;;;5044193;28;20647;-91
2022/03/01 22:34:01;;;;;;;11.63;6.53;;;;;;;;;;5050407;28;20248;-91
2022/03/01 22:36:29;;;;;;;11.57;7.23;;;;;;;;;;5044733;28;20217;-90
2022/03/01 22:38:57;;;;;;;11.90;6.80;;;;;;;;;;5035425;28;20713;-89
2022/03/01 22:41:24;;;;;;;9.60;6.13;;;;;;;;;;5053185;28;20317;-89
2022/03/01 22:43:52;;;;;;;10.20;6.00;;;;;;;;;;5054606;28;20213;-89
2022/03/01 22:46:20;;;;;;;11.50;7.57;;;;;;;;;;5058529;28;20221;-90
2022/03/01 22:48:51;;;;;;;14.50;6.70;;;;;;;;;;5064593;28;20226;-89
2022/03/01 22:51:19;;;;;;;12.17;7.30;;;;;;;;;;5054373;28;20229;-89
2022/03/01 22:53:48;;;;;;;11.67;7.17;;;;;;;;;;5053539;28;20210;-89
2022/03/01 22:56:15;;;;;;;10.17;6.20;;;;;;;;;;5053275;28;20252;-89
2022/03/01 22:58:42;;;;;;;11.07;6.83;;;;;;;;;;5037818;28;20223;-89
2022/03/01 23:01:17;;;;;;;12.07;7.90;;;;;;;;;;5032469;28;20214;-89
2022/03/01 23:03:45;;;;;;;10.97;6.97;;;;;;;;;;5038722;28;20301;-90
2022/03/01 23:06:12;;;;;;;12.53;7.63;;;;;;;;;;5046957;28;20207;-89
2022/03/01 23:08:41;;;;;;;10.43;6.27;;;;;;;;;;5031756;28;20273;-90
2022/03/01 23:11:10;;;;;;;16.63;7.00;;;;;;;;;;5036428;28;20642;-91
2022/03/01 23:13:37;;;;;;;10.53;6.30;;;;;;;;;;5032193;28;20245;-90
2022/03/01 23:16:05;;;;;;;8.10;6.03;;;;;;;;;;5044328;28;20209;-91
2022/03/01 23:18:33;;;;;;;10.67;6.30;;;;;;;;;;5043092;28;20563;-92
2022/03/01 23:21:00;;;;;;;11.73;6.83;;;;;;;;;;5038596;28;20610;-92
2022/03/01 23:23:27;;;;;;;14.63;7.43;;;;;;;;;;5031826;28;20256;-89
2022/03/01 23:25:55;;;;;;;12.23;6.83;;;;;;;;;;5031551;28;20210;-90
2022/03/01 23:28:24;;;;;;;12.50;6.00;;;;;;;;;;5048988;28;20502;-91
2022/03/01 23:30:52;;;;;;;10.93;6.63;;;;;;;;;;5041492;28;20293;-91
2022/03/01 23:33:19;;;;;;;10.73;7.10;;;;;;;;;;5046211;28;20245;-91
2022/03/01 23:35:47;;;;;;;14.70;7.37;;;;;;;;;;5037540;28;20210;-91
2022/03/01 23:38:15;;;;;;;11.70;7.50;;;;;;;;;;5039488;28;20249;-92
2022/03/01 23:40:43;;;;;;;10.87;6.33;;;;;;;;;;5038512;28;20209;-91
2022/03/01 23:43:10;;;;;;;12.07;7.40;;;;;;;;;;5038148;28;20329;-91
2022/03/01 23:45:39;;;;;;;13.67;7.67;;;;;;;;;;5031565;28;20211;-91
2022/03/01 23:48:06;;;;;;;11.53;6.87;;;;;;;;;;5051943;28;20229;-90
2022/03/01 23:50:34;;;;;;;10.83;6.40;;;;;;;;;;5050415;28;20206;-89
2022/03/01 23:53:02;;;;;;;10.93;6.80;;;;;;;;;;5042800;28;20198;-89
2022/03/01 23:55:29;;;;;;;11.67;7.17;;;;;;;;;;5051022;28;20233;-89